PAGM

Details ICAO PAGM (GAM)
Name GAMBELL
Region USA (Alaska)
Timezone America/Nome (UTC-9.0)
Plans Departing 3
Arriving 4
Stats Elevation 27 ft / 8 m (AMSL)
Location 63.766613° -171.732791°
Runways 1
Magnetic Variation 6.906° E
Sunrise 2017-12-11 21:05:18 UTC / 2017-12-11 12:05:18 Local
Sunset 2017-12-12 01:38:24 UTC / 2017-12-11 16:38:24 Local
Advertisement - Login to hide

Runways

ID Width Length Bearing (true) Bearing (mag) Surface Threshold Offset Overrun Length
16 95 ft / 29 m 4,491 ft / 1,369 m 172.06° 165.15° Asphalt 0 ft / 0 m 0 ft / 0 m
34 95 ft / 29 m 4,491 ft / 1,369 m 352.06° 345.15° Asphalt 0 ft / 0 m 0 ft / 0 m

Map

Weather


0- 5 10 15 20 25 30 35+ Temperature / ° C

Clouds and Precipitation
Forecast for 2017-12-12 00:00 UTC. Updated 2 hours ago

Ground ~20,000 ft ~40,000 ft Winds

METAR

PAGM 112356Z AUTO 35025G32KT 9SM UP BKN020 OVC027 M07/M10 A2960 RMK AO2 PK WND 35038/2318 UPB55SNB46E55 SLP031 P0000 60000 T10721100 11072 21083 51002 FZRANO

TAF

Not found

Frequencies

Recorded 125.90 MHz AWOS 3
Unicom 122.70 MHz CTAF
Warning: Do not use this data for real-world aviation or navigation. No guarantee of current accuracy is given.